Terminal Aerodrome Forecast
Issued by NWS Twin Cities, MN

Home | Current Version | Previous Version | Graphics & Text | Print | Product List | Glossary On
Versions: 1 2 3 4 5 6 7 8 9 10 11 12 13 14 15 16 17 18 19 20 21 22 23 24 25 26 27
176
FTUS43 KMPX 221124
TAFMSP
TAF
KMSP 221124Z 2212/2318 15003KT P6SM SCT015 BKN050
     FM221400 16005KT P6SM BKN020
      TEMPO 2214/2216 SCT020 BKN035
     FM221600 16005KT P6SM BKN035
     FM230000 12003KT P6SM SKC=

USA.gov is the U.S. government's official web portal to all federal, state and local government web resources and services.